createdAt,value
2022-12-01T05:19:12.765Z,13.00
2022-12-01T05:22:15.958Z,13.30
2022-12-01T05:25:19.296Z,13.30
2022-12-01T05:28:24.385Z,12.95
2022-12-01T05:31:26.962Z,13.52
2022-12-01T05:34:30.301Z,14.27
2022-12-01T05:37:34.645Z,14.38
2022-12-01T05:40:38.375Z,13.85
2022-12-01T05:43:40.905Z,14.25
2022-12-01T05:46:43.754Z,14.93
2022-12-01T05:49:46.273Z,15.55
2022-12-01T05:52:49.259Z,15.20
2022-12-01T05:55:55.452Z,14.98
2022-12-01T05:58:58.129Z,17.62
2022-12-01T06:02:00.688Z,18.75
2022-12-01T06:05:03.601Z,19.60
2022-12-01T06:08:06.247Z,21.02
2022-12-01T06:11:09.179Z,22.62
2022-12-01T06:14:11.630Z,23.10
2022-12-01T06:17:14.465Z,24.42
2022-12-01T06:20:17.052Z,23.40
2022-12-01T06:23:19.732Z,22.48
2022-12-01T06:26:22.306Z,22.62
2022-12-01T06:29:25.281Z,22.70
2022-12-01T06:32:27.792Z,22.85
2022-12-01T06:35:32.116Z,23.98
2022-12-01T06:38:36.091Z,23.40
2022-12-01T06:41:39.366Z,23.05
2022-12-01T06:44:41.870Z,22.13
2022-12-01T06:47:44.646Z,21.62
2022-12-01T06:50:47.271Z,22.70
2022-12-01T06:53:54.693Z,21.67
2022-12-01T06:56:59.764Z,21.20
2022-12-01T07:00:04.267Z,22.27
2022-12-01T07:03:08.539Z,22.62
2022-12-01T07:06:11.348Z,23.30
2022-12-01T07:09:13.966Z,22.08
2022-12-01T07:12:16.718Z,22.50
2022-12-01T07:15:20.139Z,21.75
2022-12-01T07:18:23.342Z,22.00
2022-12-01T07:21:26.130Z,21.33
2022-12-01T07:24:30.712Z,20.80
2022-12-01T07:27:33.140Z,20.42
2022-12-01T07:30:36.034Z,19.10
2022-12-01T07:33:38.743Z,19.87
2022-12-01T07:36:41.805Z,20.05
2022-12-01T07:39:44.402Z,20.05
2022-12-01T07:42:47.186Z,21.65
2022-12-01T07:45:49.788Z,21.42
2022-12-01T07:48:55.263Z,21.92
2022-12-01T07:51:58.023Z,22.70
2022-12-01T07:55:00.875Z,22.52
2022-12-01T07:58:03.423Z,23.15
2022-12-01T08:01:12.808Z,22.60
2022-12-01T08:04:16.106Z,22.40
2022-12-01T08:07:18.796Z,21.40
2022-12-01T08:10:21.760Z,21.70
2022-12-01T08:13:24.165Z,20.92
2022-12-01T08:16:28.569Z,19.12
2022-12-01T08:19:31.308Z,21.30
2022-12-01T08:22:34.991Z,19.55
2022-12-01T08:25:37.497Z,20.00
2022-12-01T08:28:41.282Z,18.80
2022-12-01T08:31:43.796Z,19.67
2022-12-01T08:34:52.948Z,18.85
2022-12-01T08:37:55.836Z,19.95
2022-12-01T08:41:02.650Z,19.85
2022-12-01T08:44:05.262Z,19.80
2022-12-01T08:47:07.965Z,20.67
2022-12-01T08:50:11.232Z,19.85
2022-12-01T08:53:14.013Z,19.50
2022-12-01T08:56:21.979Z,19.85
2022-12-01T08:59:25.034Z,20.45
2022-12-01T09:02:27.837Z,19.95
2022-12-01T09:05:30.798Z,21.50
2022-12-01T09:08:34.081Z,21.37
2022-12-01T09:11:37.534Z,21.70
2022-12-01T09:14:48.133Z,20.42
2022-12-01T09:17:50.913Z,21.67
2022-12-01T09:20:53.941Z,20.10
2022-12-01T09:23:57.145Z,20.65
2022-12-01T09:27:00.043Z,21.27
2022-12-01T09:30:02.955Z,21.10
2022-12-01T09:33:05.514Z,20.95
2022-12-01T09:36:11.207Z,18.75
2022-12-01T09:39:18.769Z,18.42
2022-12-01T09:42:32.177Z,19.45
2022-12-01T09:45:42.855Z,19.23
2022-12-01T09:48:47.880Z,18.67
2022-12-01T09:51:52.648Z,18.75
2022-12-01T09:54:57.998Z,20.05
2022-12-01T09:58:03.317Z,17.42
2022-12-01T10:01:06.174Z,18.85
2022-12-01T10:04:25.091Z,18.30
2022-12-01T10:07:34.048Z,17.42
2022-12-01T10:10:42.869Z,16.75
2022-12-01T10:13:45.506Z,16.17
2022-12-01T10:17:12.073Z,16.77
2022-12-01T10:20:34.285Z,15.70
2022-12-01T10:23:50.766Z,17.58
2022-12-01T10:27:26.841Z,14.80
2022-12-01T10:30:29.783Z,13.30
2022-12-01T10:34:31.128Z,13.57
2022-12-01T10:37:59.211Z,15.15
2022-12-01T10:41:03.815Z,15.25
2022-12-01T10:44:08.653Z,14.70
2022-12-01T10:47:23.264Z,14.90
2022-12-01T10:50:28.290Z,16.27
2022-12-01T10:53:33.685Z,15.38
2022-12-01T10:56:43.927Z,14.73
2022-12-01T11:00:02.039Z,14.48
2022-12-01T11:03:22.335Z,15.27
2022-12-01T11:06:27.852Z,14.55
2022-12-01T11:09:31.394Z,14.27
2022-12-01T11:12:34.644Z,13.40
2022-12-01T11:15:53.441Z,14.50
2022-12-01T11:19:25.119Z,13.62
2022-12-01T11:22:31.822Z,14.65
2022-12-01T11:25:34.404Z,15.45
2022-12-01T11:28:43.121Z,14.45
2022-12-01T11:31:49.451Z,13.35
2022-12-01T11:35:02.354Z,13.80
2022-12-01T11:38:29.173Z,13.22
2022-12-01T11:41:33.064Z,13.05
2022-12-01T11:44:51.036Z,13.38
2022-12-01T11:48:07.094Z,13.13
2022-12-01T11:51:39.159Z,13.43
2022-12-01T11:54:55.891Z,13.05
2022-12-01T11:58:03.174Z,13.45
2022-12-01T12:01:21.960Z,12.88
2022-12-01T12:04:46.201Z,12.45
2022-12-01T12:08:01.577Z,12.07
2022-12-01T12:11:20.876Z,11.73
2022-12-01T12:14:48.777Z,12.80
2022-12-01T12:17:58.393Z,11.85
2022-12-01T12:21:30.024Z,12.00
2022-12-01T12:24:41.522Z,11.77
2022-12-01T12:28:28.493Z,10.88
2022-12-01T12:31:38.296Z,11.27
2022-12-01T12:34:52.394Z,11.63
2022-12-01T12:38:09.115Z,11.60
2022-12-01T12:41:30.578Z,11.12
2022-12-01T12:45:02.648Z,11.93
2022-12-01T12:48:17.845Z,11.57
2022-12-01T12:51:34.882Z,11.30
2022-12-01T12:54:47.181Z,11.20
2022-12-01T12:57:55.449Z,11.25
2022-12-01T13:01:03.609Z,10.98
2022-12-01T13:04:22.721Z,11.18
2022-12-01T13:07:47.260Z,11.02
2022-12-01T13:11:03.114Z,13.10
2022-12-01T13:14:16.018Z,11.02
2022-12-01T13:17:38.601Z,10.98
2022-12-01T13:20:41.869Z,10.82
2022-12-01T13:23:47.053Z,10.82
2022-12-01T13:27:07.749Z,10.60
2022-12-01T13:30:20.132Z,10.70
2022-12-01T13:33:22.809Z,10.82
2022-12-01T13:39:54.629Z,11.00
2022-12-01T13:43:08.624Z,10.68
2022-12-01T13:46:25.945Z,10.70
2022-12-01T13:49:47.745Z,10.50
2022-12-01T13:55:55.926Z,10.60
2022-12-01T13:58:58.433Z,11.40
2022-12-01T14:02:16.224Z,11.05
2022-12-01T14:05:24.699Z,11.02
2022-12-01T14:08:29.707Z,11.27
2022-12-01T14:11:34.724Z,12.32
2022-12-01T14:14:44.569Z,10.85
2022-12-01T14:17:47.970Z,11.48
2022-12-01T14:20:50.668Z,11.35
2022-12-01T14:24:02.428Z,11.27
2022-12-01T14:27:06.421Z,11.40
2022-12-01T14:30:40.077Z,11.63
2022-12-01T14:33:52.233Z,10.90
2022-12-01T14:37:03.768Z,10.63
2022-12-01T14:40:13.698Z,11.12
2022-12-01T14:43:35.187Z,10.52
2022-12-01T14:46:42.189Z,11.00
2022-12-01T14:49:59.631Z,10.25
2022-12-01T14:53:28.775Z,11.82
2022-12-01T14:56:33.044Z,11.85
2022-12-01T14:59:36.816Z,11.32
2022-12-01T15:02:43.776Z,10.93
2022-12-01T15:05:46.435Z,11.50
2022-12-01T15:12:31.553Z,11.63
2022-12-01T15:15:34.308Z,11.55
2022-12-01T15:18:37.266Z,11.70
2022-12-01T15:21:40.091Z,11.65
2022-12-01T15:24:43.578Z,10.77
2022-12-01T15:27:46.505Z,11.20
2022-12-01T15:30:54.855Z,10.90
2022-12-01T15:33:57.888Z,11.57
2022-12-01T15:37:04.680Z,11.55
2022-12-01T15:40:59.718Z,10.98
2022-12-01T15:43:38.983Z,11.77
2022-12-01T15:46:42.169Z,10.77
2022-12-01T15:49:49.223Z,11.60
2022-12-01T15:52:52.374Z,11.80
2022-12-01T15:55:59.078Z,13.05
2022-12-01T15:59:11.994Z,11.93
2022-12-01T16:02:20.629Z,12.07
2022-12-01T16:05:35.365Z,12.57
2022-12-01T16:08:38.104Z,11.68
2022-12-01T16:11:41.046Z,12.10
2022-12-01T16:15:03.071Z,12.32
2022-12-01T16:18:28.484Z,11.98
2022-12-01T16:21:42.173Z,11.38
2022-12-01T16:24:53.955Z,11.65
2022-12-01T16:27:57.658Z,12.73
2022-12-01T16:31:00.690Z,12.43
2022-12-01T16:34:18.520Z,13.07
2022-12-01T16:37:27.473Z,13.48
2022-12-01T16:40:30.316Z,12.63
2022-12-01T16:43:59.201Z,13.13
2022-12-01T16:47:17.487Z,13.20
2022-12-01T16:50:22.260Z,12.75
2022-12-01T16:53:24.830Z,13.18
2022-12-01T16:56:27.881Z,13.00
